sensor_id;sensor_type;location;lat;lon;timestamp;P1;durP1;ratioP1;P2;durP2;ratioP2
37791;SDS011;29527;55.766;37.570;2024-03-25T00:00:22;0.50;;;0.35;;
37791;SDS011;29527;55.766;37.570;2024-03-25T00:02:50;1.65;;;0.20;;
37791;SDS011;29527;55.766;37.570;2024-03-25T00:05:16;0.45;;;0.20;;
37791;SDS011;29527;55.766;37.570;2024-03-25T00:07:47;3.13;;;0.28;;
37791;SDS011;29527;55.766;37.570;2024-03-25T00:10:12;0.20;;;0.20;;
37791;SDS011;29527;55.766;37.570;2024-03-25T00:12:37;0.10;;;0.10;;
37791;SDS011;29527;55.766;37.570;2024-03-25T00:15:03;0.20;;;0.10;;
37791;SDS011;29527;55.766;37.570;2024-03-25T00:17:32;0.57;;;0.20;;
37791;SDS011;29527;55.766;37.570;2024-03-25T00:19:57;0.20;;;0.10;;
37791;SDS011;29527;55.766;37.570;2024-03-25T00:22:23;0.15;;;0.10;;
37791;SDS011;29527;55.766;37.570;2024-03-25T00:24:50;1.40;;;0.10;;
37791;SDS011;29527;55.766;37.570;2024-03-25T00:27:16;0.10;;;0.10;;
37791;SDS011;29527;55.766;37.570;2024-03-25T00:29:42;0.25;;;0.20;;
37791;SDS011;29527;55.766;37.570;2024-03-25T00:32:07;2.30;;;0.10;;
37791;SDS011;29527;55.766;37.570;2024-03-25T00:34:33;0.30;;;0.20;;
37791;SDS011;29527;55.766;37.570;2024-03-25T00:36:58;0.10;;;0.10;;
37791;SDS011;29527;55.766;37.570;2024-03-25T00:39:24;1.95;;;0.10;;
37791;SDS011;29527;55.766;37.570;2024-03-25T00:41:51;0.10;;;0.10;;
37791;SDS011;29527;55.766;37.570;2024-03-25T00:44:16;0.35;;;0.13;;
37791;SDS011;29527;55.766;37.570;2024-03-25T00:46:42;0.10;;;0.10;;
37791;SDS011;29527;55.766;37.570;2024-03-25T00:49:08;0.35;;;0.30;;
37791;SDS011;29527;55.766;37.570;2024-03-25T00:51:33;0.10;;;0.10;;
37791;SDS011;29527;55.766;37.570;2024-03-25T00:53:59;0.20;;;0.10;;
37791;SDS011;29527;55.766;37.570;2024-03-25T00:56:24;0.13;;;0.10;;
37791;SDS011;29527;55.766;37.570;2024-03-25T00:58:50;0.20;;;0.20;;
37791;SDS011;29527;55.766;37.570;2024-03-25T01:01:15;0.10;;;0.10;;
37791;SDS011;29527;55.766;37.570;2024-03-25T01:03:41;0.47;;;0.10;;
37791;SDS011;29527;55.766;37.570;2024-03-25T01:06:06;0.15;;;0.10;;
37791;SDS011;29527;55.766;37.570;2024-03-25T01:08:31;0.10;;;0.10;;
37791;SDS011;29527;55.766;37.570;2024-03-25T01:10:57;0.10;;;0.10;;
37791;SDS011;29527;55.766;37.570;2024-03-25T01:13:22;0.82;;;0.10;;
37791;SDS011;29527;55.766;37.570;2024-03-25T01:15:47;0.20;;;0.10;;
37791;SDS011;29527;55.766;37.570;2024-03-25T01:18:13;0.05;;;0.00;;
37791;SDS011;29527;55.766;37.570;2024-03-25T01:20:38;0.10;;;0.10;;
37791;SDS011;29527;55.766;37.570;2024-03-25T01:23:04;0.30;;;0.20;;
37791;SDS011;29527;55.766;37.570;2024-03-25T01:25:30;0.52;;;0.22;;
37791;SDS011;29527;55.766;37.570;2024-03-25T01:27:55;1.45;;;0.20;;
37791;SDS011;29527;55.766;37.570;2024-03-25T01:30:20;0.30;;;0.20;;
37791;SDS011;29527;55.766;37.570;2024-03-25T01:32:46;0.10;;;0.10;;
37791;SDS011;29527;55.766;37.570;2024-03-25T01:35:15;0.32;;;0.20;;
37791;SDS011;29527;55.766;37.570;2024-03-25T01:37:41;0.10;;;0.10;;
37791;SDS011;29527;55.766;37.570;2024-03-25T01:40:06;0.20;;;0.10;;
37791;SDS011;29527;55.766;37.570;2024-03-25T01:42:32;0.20;;;0.20;;
37791;SDS011;29527;55.766;37.570;2024-03-25T01:44:57;0.28;;;0.10;;
37791;SDS011;29527;55.766;37.570;2024-03-25T01:47:23;0.28;;;0.20;;
37791;SDS011;29527;55.766;37.570;2024-03-25T01:49:49;0.10;;;0.10;;
37791;SDS011;29527;55.766;37.570;2024-03-25T01:52:19;0.20;;;0.10;;
37791;SDS011;29527;55.766;37.570;2024-03-25T01:54:45;0.52;;;0.10;;
37791;SDS011;29527;55.766;37.570;2024-03-25T01:57:10;0.20;;;0.20;;
37791;SDS011;29527;55.766;37.570;2024-03-25T01:59:36;0.30;;;0.25;;
37791;SDS011;29527;55.766;37.570;2024-03-25T02:02:01;0.30;;;0.20;;
37791;SDS011;29527;55.766;37.570;2024-03-25T02:04:27;0.40;;;0.30;;
37791;SDS011;29527;55.766;37.570;2024-03-25T02:06:53;1.00;;;0.20;;
37791;SDS011;29527;55.766;37.570;2024-03-25T02:09:20;0.30;;;0.20;;
37791;SDS011;29527;55.766;37.570;2024-03-25T02:11:47;0.10;;;0.10;;
37791;SDS011;29527;55.766;37.570;2024-03-25T02:14:13;0.17;;;0.15;;
37791;SDS011;29527;55.766;37.570;2024-03-25T02:16:39;0.10;;;0.10;;
37791;SDS011;29527;55.766;37.570;2024-03-25T02:19:04;0.30;;;0.10;;
37791;SDS011;29527;55.766;37.570;2024-03-25T02:21:30;0.35;;;0.10;;
37791;SDS011;29527;55.766;37.570;2024-03-25T02:23:56;0.20;;;0.20;;
37791;SDS011;29527;55.766;37.570;2024-03-25T02:26:22;0.15;;;0.10;;
37791;SDS011;29527;55.766;37.570;2024-03-25T02:28:48;0.38;;;0.20;;
37791;SDS011;29527;55.766;37.570;2024-03-25T02:31:14;0.20;;;0.20;;
37791;SDS011;29527;55.766;37.570;2024-03-25T02:33:39;1.60;;;0.45;;
37791;SDS011;29527;55.766;37.570;2024-03-25T02:36:04;0.88;;;0.30;;
37791;SDS011;29527;55.766;37.570;2024-03-25T02:38:30;0.25;;;0.20;;
37791;SDS011;29527;55.766;37.570;2024-03-25T02:40:57;0.25;;;0.20;;
37791;SDS011;29527;55.766;37.570;2024-03-25T02:43:23;0.43;;;0.32;;
37791;SDS011;29527;55.766;37.570;2024-03-25T02:45:48;0.17;;;0.17;;
37791;SDS011;29527;55.766;37.570;2024-03-25T02:48:14;0.10;;;0.10;;
37791;SDS011;29527;55.766;37.570;2024-03-25T02:50:39;0.28;;;0.10;;
37791;SDS011;29527;55.766;37.570;2024-03-25T02:53:04;0.30;;;0.20;;
37791;SDS011;29527;55.766;37.570;2024-03-25T02:55:30;0.30;;;0.25;;
37791;SDS011;29527;55.766;37.570;2024-03-25T02:57:56;0.30;;;0.20;;
37791;SDS011;29527;55.766;37.570;2024-03-25T03:00:21;0.30;;;0.20;;
37791;SDS011;29527;55.766;37.570;2024-03-25T03:02:46;0.30;;;0.20;;
37791;SDS011;29527;55.766;37.570;2024-03-25T03:05:12;1.15;;;0.20;;
37791;SDS011;29527;55.766;37.570;2024-03-25T03:07:37;0.40;;;0.28;;
37791;SDS011;29527;55.766;37.570;2024-03-25T03:10:03;0.28;;;0.20;;
37791;SDS011;29527;55.766;37.570;2024-03-25T03:12:29;0.30;;;0.30;;
37791;SDS011;29527;55.766;37.570;2024-03-25T03:14:55;0.20;;;0.20;;
37791;SDS011;29527;55.766;37.570;2024-03-25T03:17:20;0.98;;;0.50;;
37791;SDS011;29527;55.766;37.570;2024-03-25T03:19:45;1.02;;;0.50;;
37791;SDS011;29527;55.766;37.570;2024-03-25T03:22:11;0.60;;;0.40;;
37791;SDS011;29527;55.766;37.570;2024-03-25T03:24:36;1.48;;;0.65;;
37791;SDS011;29527;55.766;37.570;2024-03-25T03:27:02;1.27;;;0.80;;
37791;SDS011;29527;55.766;37.570;2024-03-25T03:29:27;1.35;;;0.70;;
37791;SDS011;29527;55.766;37.570;2024-03-25T03:31:53;1.77;;;0.50;;
37791;SDS011;29527;55.766;37.570;2024-03-25T03:34:18;1.40;;;0.45;;
37791;SDS011;29527;55.766;37.570;2024-03-25T03:36:43;0.60;;;0.50;;
37791;SDS011;29527;55.766;37.570;2024-03-25T03:39:09;0.80;;;0.55;;
37791;SDS011;29527;55.766;37.570;2024-03-25T03:41:34;1.77;;;0.40;;
37791;SDS011;29527;55.766;37.570;2024-03-25T03:44:00;0.70;;;0.50;;
37791;SDS011;29527;55.766;37.570;2024-03-25T03:46:26;0.88;;;0.60;;
37791;SDS011;29527;55.766;37.570;2024-03-25T03:48:51;1.13;;;0.50;;
37791;SDS011;29527;55.766;37.570;2024-03-25T03:51:16;1.65;;;0.80;;
37791;SDS011;29527;55.766;37.570;2024-03-25T03:53:42;2.25;;;0.55;;
37791;SDS011;29527;55.766;37.570;2024-03-25T03:56:07;0.90;;;0.35;;
37791;SDS011;29527;55.766;37.570;2024-03-25T03:58:33;1.25;;;0.65;;
37791;SDS011;29527;55.766;37.570;2024-03-25T04:00:58;0.73;;;0.50;;
37791;SDS011;29527;55.766;37.570;2024-03-25T04:03:24;1.75;;;0.50;;
37791;SDS011;29527;55.766;37.570;2024-03-25T04:05:49;0.88;;;0.50;;
37791;SDS011;29527;55.766;37.570;2024-03-25T04:08:15;0.82;;;0.40;;
37791;SDS011;29527;55.766;37.570;2024-03-25T04:10:40;1.33;;;0.50;;
37791;SDS011;29527;55.766;37.570;2024-03-25T04:13:06;0.90;;;0.40;;
37791;SDS011;29527;55.766;37.570;2024-03-25T04:15:33;1.52;;;0.57;;
37791;SDS011;29527;55.766;37.570;2024-03-25T04:17:58;2.72;;;0.70;;
37791;SDS011;29527;55.766;37.570;2024-03-25T04:20:24;0.50;;;0.40;;
37791;SDS011;29527;55.766;37.570;2024-03-25T04:22:49;1.13;;;0.55;;
37791;SDS011;29527;55.766;37.570;2024-03-25T04:25:14;0.65;;;0.40;;
37791;SDS011;29527;55.766;37.570;2024-03-25T04:27:40;0.82;;;0.60;;
37791;SDS011;29527;55.766;37.570;2024-03-25T04:30:06;1.23;;;0.60;;
37791;SDS011;29527;55.766;37.570;2024-03-25T04:32:33;0.63;;;0.38;;
37791;SDS011;29527;55.766;37.570;2024-03-25T04:34:58;3.67;;;0.50;;
37791;SDS011;29527;55.766;37.570;2024-03-25T04:37:23;1.27;;;0.60;;
37791;SDS011;29527;55.766;37.570;2024-03-25T04:39:49;2.47;;;0.70;;
37791;SDS011;29527;55.766;37.570;2024-03-25T04:42:14;1.75;;;0.65;;
37791;SDS011;29527;55.766;37.570;2024-03-25T04:44:39;0.98;;;0.70;;
37791;SDS011;29527;55.766;37.570;2024-03-25T04:47:05;2.45;;;0.77;;
37791;SDS011;29527;55.766;37.570;2024-03-25T04:49:31;1.00;;;0.50;;
37791;SDS011;29527;55.766;37.570;2024-03-25T04:51:56;1.70;;;0.60;;
37791;SDS011;29527;55.766;37.570;2024-03-25T04:54:22;1.30;;;0.50;;
37791;SDS011;29527;55.766;37.570;2024-03-25T04:56:47;0.63;;;0.50;;
37791;SDS011;29527;55.766;37.570;2024-03-25T04:59:13;1.80;;;0.70;;
37791;SDS011;29527;55.766;37.570;2024-03-25T05:01:38;1.15;;;0.60;;
37791;SDS011;29527;55.766;37.570;2024-03-25T05:04:03;2.10;;;0.70;;
37791;SDS011;29527;55.766;37.570;2024-03-25T05:06:29;2.63;;;0.70;;
37791;SDS011;29527;55.766;37.570;2024-03-25T05:08:54;1.20;;;0.65;;
37791;SDS011;29527;55.766;37.570;2024-03-25T05:11:19;2.00;;;0.70;;
37791;SDS011;29527;55.766;37.570;2024-03-25T05:13:45;2.35;;;0.90;;
37791;SDS011;29527;55.766;37.570;2024-03-25T05:16:10;1.80;;;1.17;;
37791;SDS011;29527;55.766;37.570;2024-03-25T05:18:36;2.63;;;0.65;;
37791;SDS011;29527;55.766;37.570;2024-03-25T05:21:01;2.15;;;0.95;;
37791;SDS011;29527;55.766;37.570;2024-03-25T05:23:27;0.80;;;0.55;;
37791;SDS011;29527;55.766;37.570;2024-03-25T05:25:52;0.90;;;0.57;;
37791;SDS011;29527;55.766;37.570;2024-03-25T05:28:17;1.13;;;0.52;;
37791;SDS011;29527;55.766;37.570;2024-03-25T05:30:43;1.30;;;0.60;;
37791;SDS011;29527;55.766;37.570;2024-03-25T05:33:08;1.40;;;0.70;;
37791;SDS011;29527;55.766;37.570;2024-03-25T05:35:34;2.00;;;0.73;;
37791;SDS011;29527;55.766;37.570;2024-03-25T05:38:02;1.13;;;0.70;;
37791;SDS011;29527;55.766;37.570;2024-03-25T05:40:28;1.38;;;0.75;;
37791;SDS011;29527;55.766;37.570;2024-03-25T05:42:54;1.95;;;0.90;;
37791;SDS011;29527;55.766;37.570;2024-03-25T05:45:19;0.90;;;0.60;;
37791;SDS011;29527;55.766;37.570;2024-03-25T05:47:44;2.30;;;0.80;;
37791;SDS011;29527;55.766;37.570;2024-03-25T05:50:10;1.55;;;0.60;;
37791;SDS011;29527;55.766;37.570;2024-03-25T05:52:35;1.02;;;0.50;;
37791;SDS011;29527;55.766;37.570;2024-03-25T05:55:02;1.08;;;0.60;;
37791;SDS011;29527;55.766;37.570;2024-03-25T05:57:28;1.30;;;0.80;;
37791;SDS011;29527;55.766;37.570;2024-03-25T05:59:54;1.48;;;0.98;;
37791;SDS011;29527;55.766;37.570;2024-03-25T06:02:19;2.50;;;0.70;;
37791;SDS011;29527;55.766;37.570;2024-03-25T06:04:44;3.13;;;0.90;;
37791;SDS011;29527;55.766;37.570;2024-03-25T06:07:10;3.33;;;0.80;;
37791;SDS011;29527;55.766;37.570;2024-03-25T06:09:35;2.30;;;0.70;;
37791;SDS011;29527;55.766;37.570;2024-03-25T06:12:00;1.75;;;0.85;;
37791;SDS011;29527;55.766;37.570;2024-03-25T06:14:26;2.22;;;0.77;;
37791;SDS011;29527;55.766;37.570;2024-03-25T06:16:51;3.38;;;1.00;;
37791;SDS011;29527;55.766;37.570;2024-03-25T06:19:16;1.00;;;0.93;;
37791;SDS011;29527;55.766;37.570;2024-03-25T06:21:42;1.85;;;0.75;;
37791;SDS011;29527;55.766;37.570;2024-03-25T06:24:08;0.88;;;0.47;;
37791;SDS011;29527;55.766;37.570;2024-03-25T06:26:33;2.22;;;0.80;;
37791;SDS011;29527;55.766;37.570;2024-03-25T06:29:00;2.60;;;1.05;;
37791;SDS011;29527;55.766;37.570;2024-03-25T06:31:25;3.30;;;0.80;;
37791;SDS011;29527;55.766;37.570;2024-03-25T06:34:09;2.05;;;0.70;;
37791;SDS011;29527;55.766;37.570;2024-03-25T06:39:10;3.80;;;0.80;;
37791;SDS011;29527;55.766;37.570;2024-03-25T06:41:36;1.98;;;0.70;;
37791;SDS011;29527;55.766;37.570;2024-03-25T06:44:02;3.08;;;0.90;;
37791;SDS011;29527;55.766;37.570;2024-03-25T06:46:27;2.58;;;0.95;;
37791;SDS011;29527;55.766;37.570;2024-03-25T06:48:52;2.13;;;1.05;;
37791;SDS011;29527;55.766;37.570;2024-03-25T06:51:18;1.25;;;0.73;;
37791;SDS011;29527;55.766;37.570;2024-03-25T06:53:43;1.55;;;0.80;;
37791;SDS011;29527;55.766;37.570;2024-03-25T06:56:09;5.43;;;1.05;;
37791;SDS011;29527;55.766;37.570;2024-03-25T06:58:34;1.83;;;1.23;;
37791;SDS011;29527;55.766;37.570;2024-03-25T07:01:07;2.58;;;1.40;;
37791;SDS011;29527;55.766;37.570;2024-03-25T07:03:33;2.78;;;1.30;;
37791;SDS011;29527;55.766;37.570;2024-03-25T07:05:58;4.90;;;1.50;;
37791;SDS011;29527;55.766;37.570;2024-03-25T07:08:25;2.45;;;1.20;;
37791;SDS011;29527;55.766;37.570;2024-03-25T07:10:51;2.83;;;1.08;;
37791;SDS011;29527;55.766;37.570;2024-03-25T07:13:17;3.10;;;1.30;;
37791;SDS011;29527;55.766;37.570;2024-03-25T07:15:43;5.03;;;2.33;;
37791;SDS011;29527;55.766;37.570;2024-03-25T07:18:09;4.13;;;1.70;;
37791;SDS011;29527;55.766;37.570;2024-03-25T07:20:36;4.15;;;1.80;;
37791;SDS011;29527;55.766;37.570;2024-03-25T07:23:02;7.18;;;1.70;;
37791;SDS011;29527;55.766;37.570;2024-03-25T07:25:27;5.70;;;1.50;;
37791;SDS011;29527;55.766;37.570;2024-03-25T07:27:53;2.80;;;1.38;;
37791;SDS011;29527;55.766;37.570;2024-03-25T07:30:18;2.08;;;1.35;;
37791;SDS011;29527;55.766;37.570;2024-03-25T07:32:44;5.18;;;1.27;;
37791;SDS011;29527;55.766;37.570;2024-03-25T07:35:12;4.38;;;1.15;;
37791;SDS011;29527;55.766;37.570;2024-03-25T07:37:38;4.25;;;1.40;;
37791;SDS011;29527;55.766;37.570;2024-03-25T07:40:04;4.53;;;1.85;;
37791;SDS011;29527;55.766;37.570;2024-03-25T07:42:29;5.93;;;1.45;;
37791;SDS011;29527;55.766;37.570;2024-03-25T07:44:55;1.98;;;1.10;;
37791;SDS011;29527;55.766;37.570;2024-03-25T07:47:21;4.55;;;1.30;;
37791;SDS011;29527;55.766;37.570;2024-03-25T07:49:46;5.00;;;1.10;;
37791;SDS011;29527;55.766;37.570;2024-03-25T07:52:11;4.13;;;1.75;;
37791;SDS011;29527;55.766;37.570;2024-03-25T07:54:37;3.33;;;1.30;;
37791;SDS011;29527;55.766;37.570;2024-03-25T07:57:03;3.40;;;1.42;;
37791;SDS011;29527;55.766;37.570;2024-03-25T07:59:28;3.90;;;1.63;;
37791;SDS011;29527;55.766;37.570;2024-03-25T08:01:54;2.40;;;1.25;;
37791;SDS011;29527;55.766;37.570;2024-03-25T08:04:19;4.78;;;1.15;;
37791;SDS011;29527;55.766;37.570;2024-03-25T08:06:45;2.15;;;1.08;;
37791;SDS011;29527;55.766;37.570;2024-03-25T08:09:10;5.05;;;1.88;;
37791;SDS011;29527;55.766;37.570;2024-03-25T08:11:37;3.60;;;1.30;;
37791;SDS011;29527;55.766;37.570;2024-03-25T08:14:03;3.85;;;1.70;;
37791;SDS011;29527;55.766;37.570;2024-03-25T08:16:28;3.72;;;1.27;;
37791;SDS011;29527;55.766;37.570;2024-03-25T08:18:53;2.97;;;1.45;;
37791;SDS011;29527;55.766;37.570;2024-03-25T08:21:19;8.02;;;1.80;;
37791;SDS011;29527;55.766;37.570;2024-03-25T08:23:44;3.47;;;1.35;;
37791;SDS011;29527;55.766;37.570;2024-03-25T08:26:10;4.13;;;1.50;;
37791;SDS011;29527;55.766;37.570;2024-03-25T08:28:35;5.20;;;1.63;;
37791;SDS011;29527;55.766;37.570;2024-03-25T08:31:01;3.35;;;1.30;;
37791;SDS011;29527;55.766;37.570;2024-03-25T08:33:26;5.50;;;1.70;;
37791;SDS011;29527;55.766;37.570;2024-03-25T08:35:53;5.90;;;1.52;;
37791;SDS011;29527;55.766;37.570;2024-03-25T08:38:19;3.15;;;1.30;;
37791;SDS011;29527;55.766;37.570;2024-03-25T08:40:44;4.28;;;1.30;;
37791;SDS011;29527;55.766;37.570;2024-03-25T08:43:09;5.38;;;1.80;;
37791;SDS011;29527;55.766;37.570;2024-03-25T08:45:35;4.95;;;1.40;;
37791;SDS011;29527;55.766;37.570;2024-03-25T08:48:00;4.60;;;1.50;;
37791;SDS011;29527;55.766;37.570;2024-03-25T08:50:25;9.68;;;1.58;;
37791;SDS011;29527;55.766;37.570;2024-03-25T08:52:51;3.55;;;1.25;;
37791;SDS011;29527;55.766;37.570;2024-03-25T08:55:16;8.15;;;1.58;;
37791;SDS011;29527;55.766;37.570;2024-03-25T08:57:42;5.85;;;1.20;;
37791;SDS011;29527;55.766;37.570;2024-03-25T09:00:07;3.17;;;1.40;;
37791;SDS011;29527;55.766;37.570;2024-03-25T09:02:37;5.15;;;1.30;;
37791;SDS011;29527;55.766;37.570;2024-03-25T09:05:02;6.43;;;2.05;;
37791;SDS011;29527;55.766;37.570;2024-03-25T09:07:31;6.72;;;2.00;;
37791;SDS011;29527;55.766;37.570;2024-03-25T09:09:56;5.25;;;1.80;;
37791;SDS011;29527;55.766;37.570;2024-03-25T09:12:59;7.40;;;2.00;;
37791;SDS011;29527;55.766;37.570;2024-03-25T09:15:24;4.72;;;1.80;;
37791;SDS011;29527;55.766;37.570;2024-03-25T09:17:50;7.03;;;1.42;;
37791;SDS011;29527;55.766;37.570;2024-03-25T09:20:15;3.28;;;1.40;;
37791;SDS011;29527;55.766;37.570;2024-03-25T09:22:46;4.00;;;1.75;;
37791;SDS011;29527;55.766;37.570;2024-03-25T09:25:13;5.03;;;1.60;;
37791;SDS011;29527;55.766;37.570;2024-03-25T09:27:39;3.85;;;1.70;;
37791;SDS011;29527;55.766;37.570;2024-03-25T09:30:05;3.80;;;1.55;;
37791;SDS011;29527;55.766;37.570;2024-03-25T09:32:31;5.22;;;1.73;;
37791;SDS011;29527;55.766;37.570;2024-03-25T09:34:57;2.92;;;1.42;;
37791;SDS011;29527;55.766;37.570;2024-03-25T09:37:22;4.45;;;1.45;;
37791;SDS011;29527;55.766;37.570;2024-03-25T09:39:48;10.20;;;1.95;;
37791;SDS011;29527;55.766;37.570;2024-03-25T09:42:18;5.55;;;1.98;;
37791;SDS011;29527;55.766;37.570;2024-03-25T09:44:46;4.50;;;1.27;;
37791;SDS011;29527;55.766;37.570;2024-03-25T09:47:11;4.97;;;1.45;;
37791;SDS011;29527;55.766;37.570;2024-03-25T09:49:37;4.45;;;1.50;;
37791;SDS011;29527;55.766;37.570;2024-03-25T09:52:06;5.18;;;1.60;;
37791;SDS011;29527;55.766;37.570;2024-03-25T09:54:31;2.40;;;1.55;;
37791;SDS011;29527;55.766;37.570;2024-03-25T09:56:57;7.10;;;1.95;;
37791;SDS011;29527;55.766;37.570;2024-03-25T09:59:22;5.35;;;1.52;;
37791;SDS011;29527;55.766;37.570;2024-03-25T10:01:48;5.65;;;1.73;;
37791;SDS011;29527;55.766;37.570;2024-03-25T10:04:13;5.55;;;1.73;;
37791;SDS011;29527;55.766;37.570;2024-03-25T10:06:39;7.40;;;2.15;;
37791;SDS011;29527;55.766;37.570;2024-03-25T10:09:05;6.85;;;1.60;;
37791;SDS011;29527;55.766;37.570;2024-03-25T10:11:31;3.72;;;1.85;;
37791;SDS011;29527;55.766;37.570;2024-03-25T10:14:00;6.70;;;2.00;;
37791;SDS011;29527;55.766;37.570;2024-03-25T10:16:26;8.88;;;2.00;;
37791;SDS011;29527;55.766;37.570;2024-03-25T10:18:51;7.55;;;2.50;;
37791;SDS011;29527;55.766;37.570;2024-03-25T10:21:19;6.85;;;1.90;;
37791;SDS011;29527;55.766;37.570;2024-03-25T10:23:44;6.45;;;1.85;;
37791;SDS011;29527;55.766;37.570;2024-03-25T10:26:09;3.50;;;1.58;;
37791;SDS011;29527;55.766;37.570;2024-03-25T10:28:35;6.72;;;1.73;;
37791;SDS011;29527;55.766;37.570;2024-03-25T10:31:03;4.80;;;1.90;;
37791;SDS011;29527;55.766;37.570;2024-03-25T10:33:29;5.22;;;2.00;;
37791;SDS011;29527;55.766;37.570;2024-03-25T10:35:54;7.25;;;2.05;;
37791;SDS011;29527;55.766;37.570;2024-03-25T10:38:21;6.13;;;2.10;;
37791;SDS011;29527;55.766;37.570;2024-03-25T10:40:47;4.90;;;2.15;;
37791;SDS011;29527;55.766;37.570;2024-03-25T10:43:14;7.38;;;2.13;;
37791;SDS011;29527;55.766;37.570;2024-03-25T10:45:42;6.22;;;1.70;;
37791;SDS011;29527;55.766;37.570;2024-03-25T10:48:15;6.35;;;1.77;;
37791;SDS011;29527;55.766;37.570;2024-03-25T10:50:41;5.55;;;1.80;;
37791;SDS011;29527;55.766;37.570;2024-03-25T10:53:07;6.63;;;1.70;;
37791;SDS011;29527;55.766;37.570;2024-03-25T10:55:33;7.18;;;1.75;;
37791;SDS011;29527;55.766;37.570;2024-03-25T10:58:00;6.10;;;2.03;;
37791;SDS011;29527;55.766;37.570;2024-03-25T11:00:26;8.68;;;2.58;;
37791;SDS011;29527;55.766;37.570;2024-03-25T11:02:51;8.38;;;2.63;;
37791;SDS011;29527;55.766;37.570;2024-03-25T11:05:18;6.50;;;2.00;;
37791;SDS011;29527;55.766;37.570;2024-03-25T11:07:44;8.73;;;1.88;;
37791;SDS011;29527;55.766;37.570;2024-03-25T11:10:09;5.53;;;1.88;;
37791;SDS011;29527;55.766;37.570;2024-03-25T11:12:35;7.85;;;2.13;;
37791;SDS011;29527;55.766;37.570;2024-03-25T11:15:02;9.75;;;2.10;;
37791;SDS011;29527;55.766;37.570;2024-03-25T11:17:30;8.85;;;2.30;;
37791;SDS011;29527;55.766;37.570;2024-03-25T11:20:12;6.25;;;2.10;;
37791;SDS011;29527;55.766;37.570;2024-03-25T11:22:50;7.22;;;2.15;;
37791;SDS011;29527;55.766;37.570;2024-03-25T11:25:16;7.45;;;1.98;;
37791;SDS011;29527;55.766;37.570;2024-03-25T11:27:43;5.90;;;2.35;;
37791;SDS011;29527;55.766;37.570;2024-03-25T11:30:12;6.63;;;2.15;;
37791;SDS011;29527;55.766;37.570;2024-03-25T11:32:51;5.10;;;1.98;;
37791;SDS011;29527;55.766;37.570;2024-03-25T11:35:17;5.20;;;2.03;;
37791;SDS011;29527;55.766;37.570;2024-03-25T11:37:43;6.95;;;2.17;;
37791;SDS011;29527;55.766;37.570;2024-03-25T11:40:10;5.18;;;2.05;;
37791;SDS011;29527;55.766;37.570;2024-03-25T11:42:45;12.20;;;2.40;;
37791;SDS011;29527;55.766;37.570;2024-03-25T11:45:14;4.78;;;2.00;;
37791;SDS011;29527;55.766;37.570;2024-03-25T11:47:42;8.60;;;2.33;;
37791;SDS011;29527;55.766;37.570;2024-03-25T11:50:08;6.30;;;2.45;;
37791;SDS011;29527;55.766;37.570;2024-03-25T11:52:33;7.07;;;2.50;;
37791;SDS011;29527;55.766;37.570;2024-03-25T11:54:59;6.75;;;2.17;;
37791;SDS011;29527;55.766;37.570;2024-03-25T11:57:25;5.30;;;2.30;;
37791;SDS011;29527;55.766;37.570;2024-03-25T11:59:50;5.88;;;2.45;;
37791;SDS011;29527;55.766;37.570;2024-03-25T12:02:16;6.20;;;2.60;;
37791;SDS011;29527;55.766;37.570;2024-03-25T12:04:44;7.10;;;2.75;;
37791;SDS011;29527;55.766;37.570;2024-03-25T12:07:19;7.18;;;2.70;;
37791;SDS011;29527;55.766;37.570;2024-03-25T12:09:44;6.75;;;2.30;;
37791;SDS011;29527;55.766;37.570;2024-03-25T12:12:29;7.55;;;2.63;;
37791;SDS011;29527;55.766;37.570;2024-03-25T12:14:55;9.00;;;2.72;;
37791;SDS011;29527;55.766;37.570;2024-03-25T12:17:21;6.85;;;2.38;;
37791;SDS011;29527;55.766;37.570;2024-03-25T12:22:30;6.63;;;2.33;;
37791;SDS011;29527;55.766;37.570;2024-03-25T12:25:05;6.78;;;2.50;;
37791;SDS011;29527;55.766;37.570;2024-03-25T12:27:35;9.63;;;2.45;;
37791;SDS011;29527;55.766;37.570;2024-03-25T12:30:04;8.52;;;2.88;;
37791;SDS011;29527;55.766;37.570;2024-03-25T12:32:31;11.75;;;3.08;;
37791;SDS011;29527;55.766;37.570;2024-03-25T12:34:57;7.80;;;2.88;;
37791;SDS011;29527;55.766;37.570;2024-03-25T12:37:23;7.55;;;3.25;;
37791;SDS011;29527;55.766;37.570;2024-03-25T12:39:48;7.13;;;2.80;;
37791;SDS011;29527;55.766;37.570;2024-03-25T12:42:13;9.25;;;2.63;;
37791;SDS011;29527;55.766;37.570;2024-03-25T12:44:39;7.45;;;2.88;;
37791;SDS011;29527;55.766;37.570;2024-03-25T12:47:04;8.00;;;2.85;;
37791;SDS011;29527;55.766;37.570;2024-03-25T12:49:30;5.97;;;2.65;;
37791;SDS011;29527;55.766;37.570;2024-03-25T12:51:56;8.55;;;2.90;;
37791;SDS011;29527;55.766;37.570;2024-03-25T12:54:22;5.82;;;2.90;;
37791;SDS011;29527;55.766;37.570;2024-03-25T12:56:47;8.60;;;2.67;;
37791;SDS011;29527;55.766;37.570;2024-03-25T12:59:13;10.18;;;2.90;;
37791;SDS011;29527;55.766;37.570;2024-03-25T13:01:39;5.82;;;2.45;;
37791;SDS011;29527;55.766;37.570;2024-03-25T13:04:05;9.25;;;2.80;;
37791;SDS011;29527;55.766;37.570;2024-03-25T13:06:31;7.32;;;3.15;;
37791;SDS011;29527;55.766;37.570;2024-03-25T13:08:56;6.13;;;2.80;;
37791;SDS011;29527;55.766;37.570;2024-03-25T13:11:22;7.63;;;3.08;;
37791;SDS011;29527;55.766;37.570;2024-03-25T13:13:47;8.77;;;3.05;;
37791;SDS011;29527;55.766;37.570;2024-03-25T13:16:13;10.63;;;3.40;;
37791;SDS011;29527;55.766;37.570;2024-03-25T13:18:38;10.88;;;3.13;;
37791;SDS011;29527;55.766;37.570;2024-03-25T13:21:03;9.52;;;3.25;;
37791;SDS011;29527;55.766;37.570;2024-03-25T13:23:29;8.25;;;2.80;;
37791;SDS011;29527;55.766;37.570;2024-03-25T13:25:54;8.75;;;3.00;;
37791;SDS011;29527;55.766;37.570;2024-03-25T13:28:20;13.27;;;3.67;;
37791;SDS011;29527;55.766;37.570;2024-03-25T13:30:45;16.92;;;3.20;;
37791;SDS011;29527;55.766;37.570;2024-03-25T13:33:11;11.48;;;3.40;;
37791;SDS011;29527;55.766;37.570;2024-03-25T13:35:36;10.45;;;3.40;;
37791;SDS011;29527;55.766;37.570;2024-03-25T13:38:03;9.50;;;3.70;;
37791;SDS011;29527;55.766;37.570;2024-03-25T13:40:28;11.82;;;3.45;;
37791;SDS011;29527;55.766;37.570;2024-03-25T13:42:54;12.75;;;3.78;;
37791;SDS011;29527;55.766;37.570;2024-03-25T13:45:19;10.65;;;3.65;;
37791;SDS011;29527;55.766;37.570;2024-03-25T13:47:44;11.18;;;3.42;;
37791;SDS011;29527;55.766;37.570;2024-03-25T13:50:10;9.98;;;3.53;;
37791;SDS011;29527;55.766;37.570;2024-03-25T13:52:36;7.30;;;3.33;;
37791;SDS011;29527;55.766;37.570;2024-03-25T13:55:02;14.23;;;3.42;;
37791;SDS011;29527;55.766;37.570;2024-03-25T13:57:30;8.32;;;3.67;;
37791;SDS011;29527;55.766;37.570;2024-03-25T13:59:55;9.30;;;3.40;;
37791;SDS011;29527;55.766;37.570;2024-03-25T14:02:22;10.30;;;3.47;;
37791;SDS011;29527;55.766;37.570;2024-03-25T14:04:48;6.75;;;3.13;;
37791;SDS011;29527;55.766;37.570;2024-03-25T14:07:13;7.20;;;3.50;;
37791;SDS011;29527;55.766;37.570;2024-03-25T14:09:38;9.95;;;3.47;;
37791;SDS011;29527;55.766;37.570;2024-03-25T14:12:04;7.38;;;3.28;;
37791;SDS011;29527;55.766;37.570;2024-03-25T14:14:29;12.05;;;3.58;;
37791;SDS011;29527;55.766;37.570;2024-03-25T14:16:55;11.48;;;3.60;;
37791;SDS011;29527;55.766;37.570;2024-03-25T14:19:20;13.15;;;3.85;;
37791;SDS011;29527;55.766;37.570;2024-03-25T14:21:47;11.55;;;3.70;;
37791;SDS011;29527;55.766;37.570;2024-03-25T14:24:13;12.45;;;3.35;;
37791;SDS011;29527;55.766;37.570;2024-03-25T14:26:39;10.25;;;3.25;;
37791;SDS011;29527;55.766;37.570;2024-03-25T14:29:04;8.63;;;3.53;;
37791;SDS011;29527;55.766;37.570;2024-03-25T14:31:29;6.30;;;3.03;;